createdAt,value
2022-09-16T08:46:11.837Z,3984.00
2022-09-16T08:47:12.761Z,3836.00
2022-09-16T08:48:12.738Z,4080.00
2022-09-16T08:50:12.761Z,4332.00
2022-09-16T08:51:12.759Z,4452.00
2022-09-16T08:52:12.814Z,4752.00
2022-09-16T08:53:12.723Z,4760.00
2022-09-16T08:54:12.717Z,4956.00
2022-09-16T08:55:12.758Z,5316.00
2022-09-16T08:56:12.686Z,5392.00
2022-09-16T08:57:12.738Z,5532.00
2022-09-16T08:58:12.675Z,6040.00
2022-09-16T08:59:12.670Z,6032.00
2022-09-16T09:00:12.686Z,5836.00
2022-09-16T09:01:12.762Z,5420.00
2022-09-16T09:02:13.158Z,5080.00
2022-09-16T09:03:12.633Z,4768.00
2022-09-16T09:04:12.689Z,4308.00
2022-09-16T09:05:12.583Z,3796.00
2022-09-16T09:06:12.844Z,3468.00
2022-09-16T09:07:12.635Z,3208.00
2022-09-16T09:08:12.741Z,3104.00
2022-09-16T09:09:12.557Z,3072.00
2022-09-16T09:10:12.524Z,3048.00
2022-09-16T09:11:12.535Z,3132.00
2022-09-16T09:12:13.656Z,3272.00
2022-09-16T09:13:13.837Z,3524.00
2022-09-16T09:14:12.499Z,3568.00
2022-09-16T09:15:12.624Z,4064.00
2022-09-16T09:16:12.631Z,4580.00
2022-09-16T09:17:12.450Z,5032.00
2022-09-16T09:18:15.826Z,5464.00
2022-09-16T09:19:12.455Z,5748.00
2022-09-16T09:20:12.487Z,5584.00
2022-09-16T09:21:12.435Z,5340.00
2022-09-16T09:22:12.398Z,5136.00
2022-09-16T09:23:12.422Z,5116.00
2022-09-16T09:24:12.419Z,5228.00
2022-09-16T09:25:12.369Z,5244.00
2022-09-16T09:26:12.373Z,5180.00
2022-09-16T09:27:12.374Z,4860.00
2022-09-16T09:28:12.334Z,3840.00
2022-09-16T09:29:12.337Z,3328.00
2022-09-16T09:30:12.340Z,3416.00
2022-09-16T09:31:12.373Z,3204.00
2022-09-16T09:32:12.303Z,2884.00
2022-09-16T09:33:34.153Z,2876.00
2022-09-16T09:34:12.277Z,3040.00
2022-09-16T09:35:12.256Z,3060.00
2022-09-16T09:36:12.254Z,3244.00
2022-09-16T09:37:12.265Z,3232.00
2022-09-16T09:38:12.205Z,3032.00
2022-09-16T09:39:12.231Z,2840.00
2022-09-16T09:40:12.285Z,2644.00
2022-09-16T09:41:12.180Z,2480.00
2022-09-16T09:42:12.180Z,2380.00
2022-09-16T09:43:12.180Z,2208.00
2022-09-16T09:44:12.203Z,2200.00
2022-09-16T09:45:12.134Z,2212.00
2022-09-16T09:46:12.226Z,2160.00
2022-09-16T09:47:12.128Z,2104.00
2022-09-16T09:48:12.100Z,2032.00
2022-09-16T09:49:12.131Z,2008.00
2022-09-16T09:50:12.101Z,2008.00
2022-09-16T09:51:12.054Z,2056.00
2022-09-16T09:52:12.217Z,2080.00
2022-09-16T09:53:12.037Z,2024.00
2022-09-16T09:54:12.042Z,1944.00
2022-09-16T09:55:16.041Z,2008.00
2022-09-16T09:56:12.023Z,2100.00
2022-09-16T09:57:12.019Z,2136.00
2022-09-16T09:58:12.025Z,2056.00
2022-09-16T09:59:12.010Z,1916.00
2022-09-16T10:00:11.968Z,2000.00
2022-09-16T10:01:12.006Z,1944.00
2022-09-16T10:02:12.039Z,1856.00
2022-09-16T10:03:12.158Z,1772.00
2022-09-16T10:04:12.008Z,1964.00
2022-09-16T10:05:11.909Z,2160.00
2022-09-16T10:06:11.906Z,2176.00
2022-09-16T10:07:11.882Z,2372.00
2022-09-16T10:08:14.401Z,2920.00
2022-09-16T10:09:11.894Z,3128.00
2022-09-16T10:10:11.867Z,3024.00
2022-09-16T10:11:11.835Z,3052.00
2022-09-16T10:12:11.850Z,3064.00
2022-09-16T10:13:11.848Z,3284.00
2022-09-16T10:14:11.809Z,3368.00
2022-09-16T10:15:11.820Z,3124.00
2022-09-16T10:16:11.816Z,3024.00
2022-09-16T10:17:11.758Z,3180.00
2022-09-16T10:18:11.763Z,3348.00
2022-09-16T10:19:11.764Z,3568.00
2022-09-16T10:20:11.800Z,3700.00
2022-09-16T10:21:11.741Z,3680.00
2022-09-16T10:22:11.738Z,3968.00
2022-09-16T10:23:11.690Z,4224.00
2022-09-16T10:24:11.739Z,4624.00
2022-09-16T10:25:11.679Z,5004.00
2022-09-16T10:26:11.655Z,4840.00
2022-09-16T10:27:11.655Z,4628.00
2022-09-16T10:28:11.672Z,4844.00
2022-09-16T10:29:11.632Z,5200.00
2022-09-16T10:30:11.711Z,5408.00
2022-09-16T10:31:11.675Z,5344.00
2022-09-16T10:32:11.620Z,5604.00
2022-09-16T10:33:11.573Z,5300.00
2022-09-16T10:34:11.627Z,5076.00
2022-09-16T10:35:11.565Z,5100.00
2022-09-16T10:36:11.550Z,5072.00
2022-09-16T10:37:11.553Z,5016.00
2022-09-16T10:38:11.551Z,4724.00
2022-09-16T10:39:11.522Z,4640.00
2022-09-16T10:40:11.575Z,4620.00
2022-09-16T10:41:11.495Z,4400.00
2022-09-16T10:42:11.493Z,4404.00
2022-09-16T10:43:11.465Z,4360.00
2022-09-16T10:44:15.125Z,4276.00
2022-09-16T10:45:11.467Z,4540.00
2022-09-16T10:46:11.471Z,4732.00
2022-09-16T10:47:11.455Z,4744.00
2022-09-16T10:48:11.422Z,5292.00
2022-09-16T10:49:11.413Z,5192.00
2022-09-16T10:50:11.372Z,5368.00
2022-09-16T10:51:11.387Z,5232.00
2022-09-16T10:52:11.375Z,5284.00
2022-09-16T10:53:11.347Z,5240.00
2022-09-16T10:54:11.335Z,5432.00
2022-09-16T10:55:11.352Z,5424.00
2022-09-16T10:56:11.312Z,5484.00
2022-09-16T10:57:11.307Z,5316.00
2022-09-16T10:58:11.340Z,4800.00
2022-09-16T10:59:11.282Z,4948.00
2022-09-16T11:00:11.282Z,5032.00
2022-09-16T11:01:12.104Z,4980.00
2022-09-16T11:02:11.497Z,5216.00
2022-09-16T11:03:11.325Z,5108.00
2022-09-16T11:04:11.692Z,4780.00
2022-09-16T11:05:11.208Z,4400.00
2022-09-16T11:06:11.211Z,4408.00
2022-09-16T11:07:11.211Z,4100.00
2022-09-16T11:08:11.176Z,3664.00
2022-09-16T11:09:11.207Z,2992.00
2022-09-16T11:10:11.165Z,2596.00
2022-09-16T11:11:11.996Z,2436.00
2022-09-16T11:12:11.186Z,2476.00
2022-09-16T11:13:11.153Z,2816.00
2022-09-16T11:14:11.105Z,2676.00
2022-09-16T11:15:11.099Z,2596.00
2022-09-16T11:16:11.180Z,2920.00
2022-09-16T11:17:11.068Z,3436.00
2022-09-16T11:18:11.082Z,3848.00
2022-09-16T11:19:11.070Z,3808.00
2022-09-16T11:20:11.043Z,4360.00
2022-09-16T11:21:11.075Z,4856.00
2022-09-16T11:22:11.039Z,4740.00
2022-09-16T11:23:11.004Z,4708.00
2022-09-16T11:24:10.975Z,4908.00
2022-09-16T11:25:10.986Z,5052.00
2022-09-16T11:26:10.976Z,4944.00
2022-09-16T11:27:11.007Z,4720.00
2022-09-16T11:28:10.973Z,4520.00
2022-09-16T11:29:10.920Z,4832.00
2022-09-16T11:30:10.956Z,4960.00
2022-09-16T11:31:10.961Z,4952.00
2022-09-16T11:32:10.918Z,4776.00
2022-09-16T11:33:11.078Z,4780.00
2022-09-16T11:34:10.900Z,4596.00
2022-09-16T11:35:10.858Z,4404.00
2022-09-16T11:36:10.960Z,4456.00
2022-09-16T11:37:10.910Z,5028.00
2022-09-16T11:38:10.866Z,5232.00
2022-09-16T11:39:10.806Z,5012.00
2022-09-16T11:40:11.857Z,4672.00
2022-09-16T11:41:10.786Z,4752.00
2022-09-16T11:42:10.781Z,4620.00
2022-09-16T11:43:10.823Z,4380.00
2022-09-16T11:44:10.776Z,4232.00
2022-09-16T11:45:10.750Z,4264.00
2022-09-16T11:46:10.870Z,4336.00
2022-09-16T11:47:10.718Z,4268.00
2022-09-16T11:48:10.764Z,4380.00
2022-09-16T11:49:10.729Z,4712.00
2022-09-16T11:50:10.700Z,4944.00
2022-09-16T11:51:10.692Z,5072.00
2022-09-16T11:52:10.724Z,5264.00
2022-09-16T11:53:11.895Z,5376.00
2022-09-16T11:54:10.710Z,5528.00
2022-09-16T11:55:10.655Z,5628.00
2022-09-16T11:56:10.626Z,5728.00
2022-09-16T11:57:13.195Z,5764.00
2022-09-16T11:58:10.611Z,5756.00
2022-09-16T11:59:10.624Z,5856.00
2022-09-16T12:00:10.700Z,5820.00
2022-09-16T12:01:10.623Z,5696.00
2022-09-16T12:02:10.598Z,5656.00
2022-09-16T12:03:10.660Z,5684.00
2022-09-16T12:04:10.530Z,5468.00
2022-09-16T12:05:10.519Z,5340.00
2022-09-16T12:06:10.511Z,4064.00
2022-09-16T12:07:10.645Z,5156.00
2022-09-16T12:08:10.485Z,5172.00
2022-09-16T12:09:11.145Z,5128.00
2022-09-16T12:10:10.528Z,5004.00
2022-09-16T12:11:10.449Z,4884.00
2022-09-16T12:12:10.432Z,4896.00
2022-09-16T12:13:10.463Z,4960.00
2022-09-16T12:14:10.410Z,4808.00
2022-09-16T12:15:10.489Z,4448.00
2022-09-16T12:16:10.432Z,4196.00
2022-09-16T12:17:10.378Z,4112.00
2022-09-16T12:18:10.390Z,3764.00
2022-09-16T12:19:10.379Z,3424.00
2022-09-16T12:20:10.373Z,3432.00
2022-09-16T12:21:10.415Z,3336.00
2022-09-16T12:22:10.365Z,3008.00
2022-09-16T12:23:10.310Z,2800.00
2022-09-16T12:24:10.323Z,2772.00
2022-09-16T12:25:10.316Z,2712.00
2022-09-16T12:26:10.288Z,2668.00
2022-09-16T12:27:10.318Z,2548.00
2022-09-16T12:28:10.258Z,2740.00
2022-09-16T12:29:10.240Z,2700.00
2022-09-16T12:30:10.274Z,2520.00
2022-09-16T12:31:10.309Z,2544.00
2022-09-16T12:32:10.235Z,2372.00
2022-09-16T12:33:10.245Z,2336.00
2022-09-16T12:34:10.197Z,2548.00
2022-09-16T12:35:10.169Z,2864.00
2022-09-16T12:36:10.278Z,3072.00
2022-09-16T12:37:10.186Z,3380.00
2022-09-16T12:38:10.171Z,3136.00
2022-09-16T12:39:10.142Z,2432.00
2022-09-16T12:40:10.228Z,1848.00
2022-09-16T12:41:10.154Z,1640.00
2022-09-16T12:42:10.105Z,1780.00
2022-09-16T12:43:10.107Z,2472.00
2022-09-16T12:44:30.339Z,3380.00
2022-09-16T12:45:10.067Z,3480.00
2022-09-16T12:46:10.114Z,3508.00
2022-09-16T12:47:10.117Z,3524.00
2022-09-16T12:48:10.047Z,3312.00
2022-09-16T12:49:10.041Z,2992.00
2022-09-16T12:50:10.044Z,2872.00
2022-09-16T12:51:09.999Z,2336.00
2022-09-16T12:52:09.983Z,1800.00
2022-09-16T12:53:09.992Z,1576.00
2022-09-16T12:54:09.963Z,1620.00
2022-09-16T12:55:09.959Z,1540.00
2022-09-16T12:56:09.983Z,1724.00
2022-09-16T12:57:09.957Z,1560.00
2022-09-16T12:58:09.937Z,1544.00
2022-09-16T12:59:09.907Z,1568.00
2022-09-16T13:00:09.923Z,1884.00
2022-09-16T13:01:09.982Z,2108.00
2022-09-16T13:02:09.942Z,2332.00
2022-09-16T13:03:09.941Z,2532.00
2022-09-16T13:04:09.841Z,2740.00
2022-09-16T13:05:09.904Z,2864.00
2022-09-16T13:06:09.840Z,2728.00
2022-09-16T13:07:09.912Z,2628.00
2022-09-16T13:08:09.874Z,2644.00
2022-09-16T13:09:09.793Z,2796.00
2022-09-16T13:10:09.796Z,2756.00
2022-09-16T13:11:52.441Z,2920.00
2022-09-16T13:13:09.760Z,3068.00
2022-09-16T13:14:09.767Z,3008.00
2022-09-16T13:15:09.808Z,3036.00
2022-09-16T13:16:09.745Z,3116.00
2022-09-16T13:17:09.718Z,3064.00
2022-09-16T13:18:09.717Z,2956.00
2022-09-16T13:19:09.695Z,2796.00
2022-09-16T13:20:10.016Z,2752.00
2022-09-16T13:21:09.670Z,2656.00
2022-09-16T13:22:09.678Z,2452.00
2022-09-16T13:23:09.648Z,2280.00
2022-09-16T13:24:09.648Z,2184.00
2022-09-16T13:25:09.641Z,2248.00
2022-09-16T13:26:09.616Z,2216.00
2022-09-16T13:27:09.578Z,2332.00
2022-09-16T13:28:09.701Z,2564.00
2022-09-16T13:29:09.565Z,2816.00
2022-09-16T13:30:09.569Z,2864.00
2022-09-16T13:31:09.602Z,2736.00
2022-09-16T13:32:09.540Z,2472.00
2022-09-16T13:33:09.518Z,2496.00
2022-09-16T13:34:09.539Z,2616.00
2022-09-16T13:35:09.503Z,2572.00
2022-09-16T13:36:09.496Z,2460.00
2022-09-16T13:37:09.477Z,2420.00
2022-09-16T13:38:09.452Z,2356.00
2022-09-16T13:39:09.456Z,2348.00
2022-09-16T13:40:09.522Z,2316.00
2022-09-16T13:41:09.406Z,2348.00
2022-09-16T13:42:09.380Z,2632.00
2022-09-16T13:43:09.352Z,2864.00
2022-09-16T13:44:09.388Z,2972.00
2022-09-16T13:45:09.374Z,2936.00
2022-09-16T13:46:09.428Z,2944.00
2022-09-16T13:47:09.334Z,3100.00
2022-09-16T13:48:09.383Z,3244.00
2022-09-16T13:49:09.381Z,3324.00
2022-09-16T13:50:09.286Z,3244.00
2022-09-16T13:51:09.324Z,3116.00
2022-09-16T13:52:09.262Z,2992.00
2022-09-16T13:53:09.270Z,2952.00
2022-09-16T13:54:09.274Z,2928.00
2022-09-16T13:55:10.997Z,2920.00
2022-09-16T13:56:09.196Z,2952.00
2022-09-16T13:57:12.642Z,2824.00
2022-09-16T13:58:09.303Z,2760.00
2022-09-16T13:59:09.203Z,2808.00
2022-09-16T14:00:09.219Z,2836.00
2022-09-16T14:01:09.242Z,2792.00
2022-09-16T14:02:09.277Z,2800.00
2022-09-16T14:03:09.291Z,2828.00
2022-09-16T14:04:09.113Z,2848.00
2022-09-16T14:05:09.123Z,2780.00
2022-09-16T14:06:09.097Z,2884.00
2022-09-16T14:07:09.106Z,3044.00
2022-09-16T14:08:09.084Z,3140.00
2022-09-16T14:09:09.063Z,3116.00
2022-09-16T14:10:09.115Z,3140.00
2022-09-16T14:11:09.078Z,3128.00
2022-09-16T14:12:09.037Z,3060.00
2022-09-16T14:13:09.040Z,3084.00
2022-09-16T14:14:15.691Z,3104.00
2022-09-16T14:15:09.014Z,3080.00
2022-09-16T14:16:09.002Z,2956.00
2022-09-16T14:17:08.995Z,2844.00
2022-09-16T14:18:08.961Z,2736.00
2022-09-16T14:19:08.946Z,2632.00
2022-09-16T14:20:08.967Z,2568.00
2022-09-16T14:21:08.922Z,2556.00
2022-09-16T14:22:08.941Z,2536.00
2022-09-16T14:23:08.943Z,2480.00
2022-09-16T14:24:08.896Z,2404.00
2022-09-16T14:25:26.272Z,2352.00
2022-09-16T14:26:08.909Z,2328.00
2022-09-16T14:27:08.910Z,2304.00
2022-09-16T14:28:08.844Z,2280.00
2022-09-16T14:29:08.832Z,2284.00
2022-09-16T14:30:08.835Z,2328.00
2022-09-16T14:31:08.912Z,2332.00
2022-09-16T14:32:08.803Z,2268.00
2022-09-16T14:33:08.794Z,2164.00
2022-09-16T14:34:08.778Z,2072.00
2022-09-16T14:35:08.778Z,2084.00
2022-09-16T14:36:08.805Z,2160.00
2022-09-16T14:37:08.748Z,2212.00
2022-09-16T14:38:22.790Z,2204.00
2022-09-16T14:39:09.060Z,2180.00
2022-09-16T14:40:08.810Z,2136.00
2022-09-16T14:41:08.733Z,2096.00
2022-09-16T14:42:08.715Z,2064.00
2022-09-16T14:43:08.706Z,1984.00
2022-09-16T14:44:08.750Z,1916.00
2022-09-16T14:45:09.192Z,1808.00
2022-09-16T14:46:08.634Z,1696.00
2022-09-16T14:47:10.555Z,1604.00
2022-09-16T14:48:08.618Z,1532.00
2022-09-16T14:49:08.616Z,1424.00
2022-09-16T14:50:08.611Z,1332.00
2022-09-16T14:51:08.594Z,1268.00
2022-09-16T14:52:08.610Z,1192.00
2022-09-16T14:53:08.556Z,1104.00
2022-09-16T14:54:12.738Z,1032.00
2022-09-16T14:55:08.532Z,976.00
2022-09-16T14:56:08.552Z,960.00
2022-09-16T14:57:08.518Z,940.00
2022-09-16T14:58:08.480Z,952.00
2022-09-16T14:59:08.480Z,988.00
2022-09-16T15:00:10.492Z,1000.00
2022-09-16T15:01:11.937Z,976.00
2022-09-16T15:02:08.500Z,920.00
2022-09-16T15:03:08.456Z,892.00
2022-09-16T15:04:08.430Z,872.00
2022-09-16T15:05:08.429Z,880.00
2022-09-16T15:06:08.414Z,904.00
2022-09-16T15:07:11.811Z,920.00
2022-09-16T15:08:14.761Z,932.00
2022-09-16T15:09:08.407Z,916.00
2022-09-16T15:10:08.364Z,912.00
2022-09-16T15:11:19.345Z,928.00
2022-09-16T15:12:08.371Z,924.00
2022-09-16T15:13:08.334Z,960.00
2022-09-16T15:14:08.401Z,988.00
2022-09-16T15:15:08.295Z,992.00
2022-09-16T15:16:08.347Z,996.00
2022-09-16T15:17:08.280Z,960.00
2022-09-16T15:18:08.298Z,916.00
2022-09-16T15:19:08.296Z,896.00
2022-09-16T15:20:08.243Z,884.00
2022-09-16T15:21:08.240Z,896.00
2022-09-16T15:22:08.240Z,904.00
2022-09-16T15:23:12.750Z,900.00
2022-09-16T15:24:08.188Z,904.00
2022-09-16T15:25:08.183Z,876.00
2022-09-16T15:26:08.174Z,852.00
2022-09-16T15:27:08.175Z,828.00
2022-09-16T15:28:08.191Z,804.00
2022-09-16T15:29:08.160Z,824.00
2022-09-16T15:30:08.141Z,848.00
2022-09-16T15:31:08.208Z,864.00
2022-09-16T15:32:08.106Z,872.00
2022-09-16T15:33:08.095Z,872.00
2022-09-16T15:34:08.085Z,884.00
2022-09-16T15:35:08.078Z,924.00
2022-09-16T15:36:08.062Z,988.00
2022-09-16T15:37:08.038Z,1044.00
2022-09-16T15:38:08.050Z,1068.00
2022-09-16T15:39:08.021Z,1096.00
2022-09-16T15:40:08.083Z,1156.00
2022-09-16T15:41:07.990Z,1184.00
2022-09-16T15:42:07.989Z,1164.00
2022-09-16T15:43:07.982Z,1120.00
2022-09-16T15:44:08.255Z,1048.00
2022-09-16T15:45:07.991Z,972.00
2022-09-16T15:46:07.997Z,920.00
2022-09-16T15:47:07.942Z,880.00
2022-09-16T15:48:07.925Z,840.00
2022-09-16T15:49:07.913Z,800.00
2022-09-16T15:50:07.927Z,796.00
2022-09-16T15:51:07.880Z,788.00
2022-09-16T15:52:07.900Z,736.00
2022-09-16T15:53:07.873Z,712.00
2022-09-16T15:54:07.869Z,692.00
2022-09-16T15:55:07.850Z,660.00
2022-09-16T15:56:07.832Z,640.00
2022-09-16T15:57:07.834Z,644.00
2022-09-16T15:58:07.808Z,656.00
2022-09-16T15:59:07.803Z,684.00
2022-09-16T16:00:07.801Z,704.00
2022-09-16T16:01:07.928Z,716.00
2022-09-16T16:02:07.899Z,724.00
2022-09-16T16:03:07.756Z,708.00
2022-09-16T16:04:07.752Z,680.00
2022-09-16T16:05:07.717Z,648.00
2022-09-16T16:06:07.775Z,616.00
2022-09-16T16:07:07.736Z,576.00
2022-09-16T16:08:10.074Z,488.00
2022-09-16T16:09:07.693Z,448.00
2022-09-16T16:10:07.663Z,452.00
2022-09-16T16:11:07.659Z,384.00
2022-09-16T16:12:07.659Z,328.00
2022-09-16T16:13:07.634Z,404.00
2022-09-16T16:14:07.618Z,552.00
2022-09-16T16:15:07.677Z,620.00
2022-09-16T16:16:07.653Z,628.00
2022-09-16T16:17:14.978Z,620.00
2022-09-16T16:18:07.587Z,604.00
2022-09-16T16:19:07.594Z,592.00
2022-09-16T16:20:07.564Z,588.00
2022-09-16T16:21:07.607Z,568.00
2022-09-16T16:22:07.528Z,552.00
2022-09-16T16:23:07.536Z,552.00
2022-09-16T16:24:07.517Z,548.00
2022-09-16T16:25:07.497Z,560.00
2022-09-16T16:26:07.519Z,564.00
2022-09-16T16:27:07.570Z,568.00
2022-09-16T16:28:07.454Z,548.00
2022-09-16T16:29:07.473Z,532.00
2022-09-16T16:30:07.445Z,512.00
2022-09-16T16:31:07.535Z,504.00
2022-09-16T16:32:07.412Z,528.00
2022-09-16T16:33:07.418Z,556.00
2022-09-16T16:34:07.403Z,564.00
2022-09-16T16:35:07.370Z,572.00
2022-09-16T16:36:07.388Z,572.00
2022-09-16T16:37:07.371Z,560.00
2022-09-16T16:38:07.341Z,532.00
2022-09-16T16:39:07.341Z,500.00
2022-09-16T16:40:07.354Z,464.00
2022-09-16T16:41:07.357Z,436.00
2022-09-16T16:42:07.313Z,440.00
2022-09-16T16:43:07.290Z,436.00
2022-09-16T16:44:07.279Z,428.00
2022-09-16T16:45:07.293Z,420.00
2022-09-16T16:46:07.357Z,388.00
2022-09-16T16:47:07.268Z,352.00
2022-09-16T16:48:07.433Z,296.00
2022-09-16T16:49:07.228Z,236.00
2022-09-16T16:50:07.222Z,176.00
2022-09-16T16:51:07.269Z,128.00
2022-09-16T16:52:07.208Z,116.00
2022-09-16T16:53:07.340Z,104.00
2022-09-16T16:54:07.194Z,88.00
2022-09-16T16:55:07.263Z,92.00
2022-09-16T16:56:09.344Z,100.00
2022-09-16T16:57:07.148Z,120.00
2022-09-16T16:58:07.118Z,148.00
2022-09-16T16:59:07.167Z,152.00
2022-09-16T17:00:07.144Z,148.00
2022-09-16T17:01:07.149Z,152.00
2022-09-16T17:02:07.097Z,148.00
2022-09-16T17:03:07.083Z,140.00
2022-09-16T17:04:07.054Z,140.00
2022-09-16T17:05:07.031Z,128.00
2022-09-16T17:06:07.508Z,116.00
2022-09-16T17:07:26.291Z,100.00
2022-09-16T17:08:07.003Z,92.00
2022-09-16T17:09:07.004Z,96.00
2022-09-16T17:10:06.981Z,104.00
2022-09-16T17:11:07.017Z,104.00
2022-09-16T17:12:06.975Z,96.00
2022-09-16T17:13:06.961Z,88.00
2022-09-16T17:14:07.029Z,84.00
2022-09-16T17:15:14.601Z,80.00
2022-09-16T17:16:06.947Z,72.00
2022-09-16T17:17:06.931Z,64.00
2022-09-16T17:18:06.901Z,64.00
2022-09-16T17:19:06.891Z,64.00
2022-09-16T17:20:06.868Z,64.00
2022-09-16T17:21:06.871Z,68.00
2022-09-16T17:22:06.849Z,64.00
2022-09-16T17:23:06.877Z,60.00
2022-09-16T17:24:06.818Z,52.00
2022-09-16T17:25:06.806Z,48.00
2022-09-16T17:26:06.834Z,44.00
2022-09-16T17:27:06.803Z,40.00
2022-09-16T17:28:06.800Z,32.00
2022-09-16T17:29:13.442Z,32.00
2022-09-16T17:30:06.782Z,28.00
2022-09-16T17:31:07.416Z,28.00
2022-09-16T17:32:06.728Z,24.00
2022-09-16T17:33:06.775Z,24.00
2022-09-16T17:34:06.708Z,24.00
2022-09-16T17:35:06.698Z,20.00
2022-09-16T17:36:06.692Z,20.00
2022-09-16T17:37:06.673Z,16.00
2022-09-16T17:38:07.131Z,20.00
2022-09-16T17:39:06.683Z,16.00
2022-09-16T17:40:06.736Z,12.00
2022-09-16T17:41:06.628Z,12.00
2022-09-16T17:42:07.639Z,12.00
2022-09-16T17:43:06.599Z,8.00
2022-09-16T17:44:06.642Z,8.00
2022-09-16T17:45:06.592Z,4.00
2022-09-16T17:46:06.650Z,8.00
2022-09-16T17:47:06.571Z,4.00
2022-09-16T17:48:06.558Z,8.00
2022-09-16T17:49:06.551Z,4.00
2022-09-16T17:50:06.546Z,4.00
2022-09-16T17:51:06.527Z,4.00
2022-09-16T17:52:06.513Z,4.00
2022-09-16T17:53:06.555Z,4.00
2022-09-16T17:54:06.476Z,4.00
2022-09-16T17:55:06.480Z,4.00
2022-09-16T17:56:06.464Z,0.00
2022-09-16T17:57:06.438Z,0.00
2022-09-16T17:58:06.427Z,0.00
2022-09-16T17:59:06.454Z,4.00
2022-09-16T18:00:06.492Z,4.00
2022-09-16T18:01:06.435Z,4.00
2022-09-16T18:02:06.392Z,0.00
2022-09-16T18:03:06.443Z,0.00
2022-09-16T18:04:06.425Z,0.00
2022-09-16T18:05:06.465Z,0.00
2022-09-16T18:06:06.379Z,0.00
2022-09-16T18:07:06.346Z,0.00
2022-09-16T18:08:06.320Z,0.00
2022-09-16T18:09:06.312Z,0.00
2022-09-16T18:10:06.320Z,0.00
2022-09-16T18:11:06.287Z,0.00
2022-09-16T18:12:06.299Z,0.00
2022-09-16T18:13:06.613Z,0.00
2022-09-16T18:14:06.350Z,0.00
2022-09-16T18:15:06.345Z,0.00
2022-09-16T18:16:06.242Z,0.00
2022-09-16T18:17:06.348Z,0.00
2022-09-16T18:18:06.200Z,0.00
2022-09-16T18:19:06.197Z,0.00
2022-09-16T18:20:07.245Z,0.00
2022-09-16T18:21:06.168Z,0.00
2022-09-16T18:22:06.183Z,0.00
2022-09-16T18:23:06.148Z,0.00
2022-09-16T18:24:06.194Z,0.00
2022-09-16T18:25:06.471Z,0.00
2022-09-16T18:26:06.112Z,0.00
2022-09-16T18:27:06.124Z,0.00
2022-09-16T18:28:06.079Z,0.00
2022-09-16T18:29:10.169Z,0.00
2022-09-16T18:30:06.109Z,0.00
2022-09-16T18:31:06.179Z,0.00
2022-09-16T18:32:06.181Z,0.00
2022-09-16T18:33:06.043Z,0.00
2022-09-16T18:34:06.026Z,0.00
2022-09-16T18:35:06.031Z,0.00
2022-09-16T18:36:06.033Z,0.00
2022-09-16T18:37:06.008Z,0.00
2022-09-16T18:38:06.013Z,0.00
2022-09-16T18:39:05.969Z,0.00
2022-09-16T18:40:06.031Z,0.00
2022-09-16T18:41:05.934Z,0.00
2022-09-16T18:42:05.940Z,0.00
2022-09-16T18:43:05.941Z,0.00
2022-09-16T18:44:06.153Z,0.00
2022-09-16T18:45:05.892Z,0.00
2022-09-16T18:46:05.950Z,0.00
2022-09-16T18:47:05.879Z,0.00
2022-09-16T18:48:05.864Z,0.00
2022-09-16T18:49:05.857Z,0.00
2022-09-16T18:50:05.872Z,0.00
2022-09-16T18:51:05.821Z,0.00
2022-09-16T18:52:05.877Z,0.00
2022-09-16T18:53:05.807Z,0.00
2022-09-16T18:54:05.876Z,0.00
2022-09-16T18:55:06.112Z,0.00
2022-09-16T18:56:05.855Z,0.00
2022-09-16T18:57:05.767Z,0.00
2022-09-16T18:58:05.846Z,0.00
2022-09-16T18:59:23.089Z,0.00
2022-09-16T19:00:06.711Z,0.00
2022-09-16T19:01:05.878Z,0.00
2022-09-16T19:02:05.873Z,0.00
2022-09-16T19:03:05.711Z,0.00
2022-09-16T19:04:05.742Z,0.00
2022-09-16T19:05:05.668Z,0.00
2022-09-16T19:06:05.672Z,0.00
2022-09-16T19:07:06.091Z,0.00
2022-09-16T19:08:05.661Z,0.00
2022-09-16T19:09:05.615Z,0.00
2022-09-16T19:10:05.619Z,0.00
2022-09-16T19:11:05.612Z,0.00
2022-09-16T19:12:05.627Z,0.00
2022-09-16T19:13:05.589Z,0.00
2022-09-16T19:14:05.592Z,0.00
2022-09-16T19:15:05.553Z,0.00
2022-09-16T19:16:05.539Z,0.00
2022-09-16T19:17:05.597Z,0.00
2022-09-16T19:18:05.573Z,0.00
2022-09-16T19:19:05.634Z,0.00
2022-09-16T19:20:05.659Z,0.00
2022-09-16T19:21:05.761Z,0.00
2022-09-16T19:22:05.894Z,0.00
2022-09-16T19:23:05.496Z,0.00
2022-09-16T19:24:05.563Z,0.00
2022-09-16T19:25:05.455Z,0.00
2022-09-16T19:26:05.613Z,0.00
2022-09-16T19:27:05.439Z,0.00
2022-09-16T19:28:05.447Z,0.00
2022-09-16T19:29:05.665Z,0.00
2022-09-16T19:30:05.384Z,0.00
2022-09-16T19:31:05.396Z,0.00
2022-09-16T19:32:05.494Z,0.00
2022-09-16T19:33:05.361Z,0.00
2022-09-16T19:34:05.403Z,0.00
2022-09-16T19:35:05.334Z,0.00
2022-09-16T19:36:06.017Z,0.00
2022-09-16T19:37:05.325Z,0.00
2022-09-16T19:38:06.004Z,0.00
2022-09-16T19:39:05.304Z,0.00
2022-09-16T19:40:05.341Z,0.00
2022-09-16T19:41:05.549Z,0.00
2022-09-16T19:42:05.325Z,0.00
2022-09-16T19:43:05.235Z,0.00
2022-09-16T19:44:05.314Z,0.00
2022-09-16T19:45:05.396Z,0.00
2022-09-16T19:46:05.614Z,0.00
2022-09-16T19:47:05.405Z,0.00
2022-09-16T19:48:05.311Z,0.00
2022-09-16T19:49:05.189Z,0.00
2022-09-16T19:50:05.183Z,0.00
2022-09-16T19:51:05.228Z,0.00
2022-09-16T19:52:05.240Z,0.00
2022-09-16T19:53:05.145Z,0.00
2022-09-16T19:54:05.388Z,0.00
2022-09-16T19:55:05.117Z,0.00
2022-09-16T19:56:05.137Z,0.00
2022-09-16T19:57:05.109Z,0.00
2022-09-16T19:58:05.081Z,0.00
2022-09-16T19:59:06.079Z,0.00
2022-09-16T20:00:05.080Z,0.00
2022-09-16T20:01:05.088Z,0.00
2022-09-16T20:02:05.107Z,0.00
2022-09-16T20:03:05.383Z,0.00
2022-09-16T20:04:05.154Z,0.00
2022-09-16T20:05:08.822Z,0.00
2022-09-16T20:06:05.160Z,0.00
2022-09-16T20:07:05.092Z,0.00
2022-09-16T20:08:05.125Z,0.00
2022-09-16T20:09:04.960Z,0.00
2022-09-16T20:10:05.157Z,0.00
2022-09-16T20:11:05.164Z,0.00
2022-09-16T20:12:05.011Z,0.00
2022-09-16T20:13:04.964Z,0.00
2022-09-16T20:14:04.912Z,0.00
2022-09-16T20:15:04.884Z,0.00
2022-09-16T20:16:04.924Z,0.00
2022-09-16T20:17:04.861Z,0.00
2022-09-16T20:18:04.887Z,0.00
2022-09-16T20:19:04.873Z,0.00
2022-09-16T20:20:04.880Z,0.00
2022-09-16T20:21:04.836Z,0.00
2022-09-16T20:22:04.882Z,0.00
2022-09-16T20:23:04.816Z,0.00
2022-09-16T20:24:05.382Z,0.00
2022-09-16T20:25:21.967Z,0.00
2022-09-16T20:26:04.826Z,0.00
2022-09-16T20:27:04.967Z,0.00
2022-09-16T20:28:04.869Z,0.00
2022-09-16T20:29:04.791Z,0.00
2022-09-16T20:30:04.740Z,0.00
2022-09-16T20:31:04.768Z,0.00
2022-09-16T20:32:04.697Z,0.00
2022-09-16T20:33:04.690Z,0.00
2022-09-16T20:34:04.667Z,0.00
2022-09-16T20:35:04.701Z,0.00
2022-09-16T20:36:04.647Z,0.00
2022-09-16T20:37:04.642Z,0.00
2022-09-16T20:38:04.812Z,0.00
2022-09-16T20:39:05.585Z,0.00
2022-09-16T20:40:04.617Z,0.00
2022-09-16T20:41:04.604Z,0.00
2022-09-16T20:42:04.576Z,0.00
2022-09-16T20:43:04.584Z,0.00
2022-09-16T20:44:04.563Z,0.00
2022-09-16T20:45:04.578Z,0.00
2022-09-16T20:46:04.721Z,0.00
2022-09-16T20:47:04.630Z,0.00
2022-09-16T20:48:04.577Z,0.00
2022-09-16T20:49:04.558Z,0.00
2022-09-16T20:50:04.682Z,0.00
2022-09-16T20:51:04.540Z,0.00
2022-09-16T20:52:04.472Z,0.00
2022-09-16T20:53:04.570Z,0.00
2022-09-16T20:54:07.298Z,0.00
2022-09-16T20:55:04.442Z,0.00
2022-09-16T20:56:04.565Z,0.00
2022-09-16T20:57:04.866Z,0.00
2022-09-16T20:58:04.405Z,0.00
2022-09-16T20:59:04.411Z,0.00
2022-09-16T21:00:04.408Z,0.00
2022-09-16T21:01:04.510Z,0.00
2022-09-16T21:02:04.506Z,0.00
2022-09-16T21:03:04.400Z,0.00
2022-09-16T21:04:04.329Z,0.00
2022-09-16T21:05:04.329Z,0.00
2022-09-16T21:06:04.358Z,0.00
2022-09-16T21:07:04.298Z,0.00
2022-09-16T21:08:04.482Z,0.00
2022-09-16T21:09:04.299Z,0.00
2022-09-16T21:10:04.270Z,0.00
2022-09-16T21:11:04.329Z,0.00
2022-09-16T21:12:04.270Z,0.00
2022-09-16T21:13:04.251Z,0.00
2022-09-16T21:14:04.877Z,0.00
2022-09-16T21:15:04.299Z,0.00
2022-09-16T21:16:04.252Z,0.00
2022-09-16T21:17:04.185Z,0.00
2022-09-16T21:18:04.290Z,0.00
2022-09-16T21:19:04.237Z,0.00